createdAt,value
2022-12-19T00:01:37.532Z,101466.59
2022-12-19T00:04:11.434Z,101456.28
2022-12-19T00:06:43.932Z,101449.69
2022-12-19T00:09:12.375Z,101443.13
2022-12-19T00:11:39.828Z,101309.25
2022-12-19T00:14:07.749Z,101435.72
2022-12-19T00:16:34.565Z,101250.22
2022-12-19T00:19:02.389Z,101285.09
2022-12-19T00:21:34.657Z,101427.97
2022-12-19T00:24:03.538Z,101373.66
2022-12-19T00:26:35.945Z,101412.56
2022-12-19T00:29:11.125Z,101300.16
2022-12-19T00:31:41.027Z,101285.94
2022-12-19T00:34:08.945Z,101374.75
2022-12-19T00:36:35.774Z,101420.41
2022-12-19T00:39:07.755Z,101389.69
2022-12-19T00:41:36.809Z,101416.34
2022-12-19T00:44:07.077Z,101412.81
2022-12-19T00:46:35.120Z,101395.03
2022-12-19T00:49:02.577Z,101334.41
2022-12-19T00:51:31.976Z,101402.50
2022-12-19T00:53:59.558Z,101256.91
2022-12-19T00:56:29.216Z,101403.28
2022-12-19T00:58:57.068Z,101411.25
2022-12-19T01:01:31.224Z,101325.72
2022-12-19T01:06:46.348Z,101358.25
2022-12-19T01:09:14.308Z,101272.28
2022-12-19T01:11:59.547Z,101259.25
2022-12-19T01:14:26.406Z,101262.47
2022-12-19T01:16:53.437Z,101396.91
2022-12-19T01:19:21.025Z,101283.28
2022-12-19T01:21:47.760Z,101366.88
2022-12-19T01:24:18.373Z,101398.13
2022-12-19T01:26:46.602Z,101380.38
2022-12-19T01:29:13.347Z,101272.47
2022-12-19T01:31:40.228Z,101248.47
2022-12-19T01:34:07.353Z,101245.88
2022-12-19T01:36:38.603Z,101275.69
2022-12-19T01:39:07.557Z,101379.38
2022-12-19T01:41:35.355Z,101316.41
2022-12-19T01:44:06.038Z,101364.25
2022-12-19T01:46:40.259Z,101277.31
2022-12-19T01:49:15.005Z,101374.88
2022-12-19T01:51:47.266Z,101377.13
2022-12-19T01:54:22.148Z,101304.50
2022-12-19T01:56:52.221Z,101341.13
2022-12-19T01:59:44.263Z,101229.28
2022-12-19T02:02:21.860Z,101227.75
2022-12-19T02:04:48.683Z,101354.06
2022-12-19T02:07:18.649Z,101334.72
2022-12-19T02:09:47.069Z,101222.50
2022-12-19T02:12:14.878Z,101343.00
2022-12-19T02:14:42.324Z,101339.75
2022-12-19T02:17:25.100Z,101383.56
2022-12-19T02:20:04.049Z,101375.94
2022-12-19T02:22:43.040Z,101378.00
2022-12-19T02:25:28.566Z,101357.56
2022-12-19T02:28:21.966Z,101365.44
2022-12-19T02:31:17.358Z,101341.47
2022-12-19T02:33:56.378Z,101365.34
2022-12-19T02:36:55.658Z,101261.41
2022-12-19T02:39:34.441Z,101356.06
2022-12-19T02:42:04.484Z,101346.75
2022-12-19T02:44:45.352Z,101215.88
2022-12-19T02:47:14.267Z,101352.63
2022-12-19T02:49:41.072Z,101235.50
2022-12-19T02:52:20.031Z,101354.47
2022-12-19T02:54:49.739Z,101178.81
2022-12-19T02:57:31.580Z,101356.28
2022-12-19T03:00:27.752Z,101159.78
2022-12-19T03:03:19.081Z,101330.34
2022-12-19T03:06:11.795Z,101258.56
2022-12-19T03:08:45.107Z,101347.75
2022-12-19T03:11:14.936Z,101296.22
2022-12-19T03:13:44.686Z,101349.56
2022-12-19T03:16:12.685Z,101162.03
2022-12-19T03:18:40.549Z,101250.75
2022-12-19T03:21:41.630Z,101192.19
2022-12-19T03:24:11.714Z,101257.41
2022-12-19T03:26:45.740Z,101222.94
2022-12-19T03:29:19.130Z,101370.53
2022-12-19T03:31:47.287Z,101212.00
2022-12-19T03:35:00.723Z,101322.25
2022-12-19T03:37:32.152Z,101353.19
2022-12-19T03:40:03.323Z,101249.44
2022-12-19T03:42:52.276Z,101217.28
2022-12-19T03:45:31.446Z,101251.94
2022-12-19T03:48:04.162Z,101364.44
2022-12-19T03:50:40.307Z,101356.78
2022-12-19T03:53:32.092Z,101293.59
2022-12-19T03:56:11.369Z,101356.56
2022-12-19T03:58:44.442Z,101299.22
2022-12-19T04:01:11.687Z,101228.69
2022-12-19T04:03:38.543Z,101185.88
2022-12-19T04:06:06.438Z,101356.28
2022-12-19T04:08:35.646Z,101336.31
2022-12-19T04:11:09.230Z,101196.13
2022-12-19T04:13:44.940Z,101257.09
2022-12-19T04:16:21.554Z,101363.75
2022-12-19T04:18:56.771Z,101207.38
2022-12-19T04:21:35.521Z,101362.03
2022-12-19T04:31:24.031Z,101242.97
2022-12-19T04:33:50.900Z,101327.91
2022-12-19T04:36:17.894Z,101190.47
2022-12-19T04:38:44.973Z,101321.91
2022-12-19T04:41:13.120Z,101314.59
2022-12-19T04:43:39.798Z,101324.13
2022-12-19T04:46:06.927Z,101140.91
2022-12-19T04:48:36.298Z,101257.00
2022-12-19T04:51:03.370Z,101250.03
2022-12-19T04:53:30.503Z,101272.06
2022-12-19T04:56:04.911Z,101310.88
2022-12-19T04:58:32.070Z,101309.81
2022-12-19T05:01:03.300Z,101286.66
2022-12-19T05:03:30.426Z,101311.56
2022-12-19T05:06:10.729Z,101305.69
2022-12-19T05:08:39.186Z,101313.53
2022-12-19T05:11:19.017Z,101176.63
2022-12-19T05:13:46.560Z,101313.47
2022-12-19T05:16:13.611Z,101119.41
2022-12-19T05:18:40.760Z,101275.94
2022-12-19T05:21:08.307Z,101201.22
2022-12-19T05:23:35.107Z,101295.75
2022-12-19T05:26:04.719Z,101200.13
2022-12-19T05:28:32.609Z,101154.03
2022-12-19T05:31:08.236Z,101238.09
2022-12-19T05:33:35.875Z,101276.03
2022-12-19T05:36:03.736Z,101313.09
2022-12-19T05:38:31.038Z,101191.47
2022-12-19T05:40:58.047Z,101250.44
2022-12-19T05:43:24.878Z,101311.22
2022-12-19T05:45:51.715Z,101111.78
2022-12-19T05:48:18.467Z,101275.81
2022-12-19T05:50:50.357Z,101293.19
2022-12-19T05:53:20.687Z,101141.78
2022-12-19T05:55:51.485Z,101151.31
2022-12-19T05:58:19.596Z,101210.63
2022-12-19T06:00:46.332Z,101294.88
2022-12-19T06:03:13.173Z,101308.22
2022-12-19T06:05:40.085Z,101186.91
2022-12-19T06:08:06.942Z,101165.34
2022-12-19T06:10:34.319Z,101282.13
2022-12-19T06:13:01.364Z,101254.97
2022-12-19T06:15:28.874Z,101247.25
2022-12-19T06:17:56.746Z,101187.75
2022-12-19T06:20:25.061Z,101240.59
2022-12-19T06:23:01.706Z,101269.63
2022-12-19T06:25:29.156Z,101261.56
2022-12-19T06:27:55.891Z,101238.72
2022-12-19T06:30:22.827Z,101152.25
2022-12-19T06:32:49.642Z,101100.41
2022-12-19T06:35:16.563Z,101288.50
2022-12-19T06:37:43.411Z,101232.63
2022-12-19T06:40:30.616Z,101133.91
2022-12-19T06:42:57.500Z,101213.72
2022-12-19T06:45:27.675Z,101248.41
2022-12-19T06:47:56.864Z,101237.22
2022-12-19T06:50:24.480Z,101140.19
2022-12-19T06:52:51.623Z,101146.06
2022-12-19T06:55:18.970Z,101241.56
2022-12-19T06:57:46.629Z,101177.19
2022-12-19T07:00:17.294Z,101226.22
2022-12-19T07:02:49.254Z,101253.91
2022-12-19T07:05:16.250Z,101292.50
2022-12-19T07:07:43.250Z,101288.13
2022-12-19T07:10:10.514Z,101278.72
2022-12-19T07:12:37.491Z,101262.91
2022-12-19T07:15:05.884Z,101208.81
2022-12-19T07:17:34.199Z,101265.13
2022-12-19T07:20:01.030Z,101295.19
2022-12-19T07:22:33.393Z,101229.09
2022-12-19T07:25:02.679Z,101270.63
2022-12-19T07:27:35.427Z,101190.34
2022-12-19T07:30:04.067Z,101273.91
2022-12-19T07:32:31.039Z,101235.38
2022-12-19T07:34:57.901Z,101307.19
2022-12-19T07:37:24.666Z,101242.75
2022-12-19T07:39:53.163Z,101157.66
2022-12-19T07:42:20.469Z,101261.66
2022-12-19T07:44:47.217Z,101184.28
2022-12-19T07:47:14.047Z,101244.31
2022-12-19T07:49:40.836Z,101137.94
2022-12-19T07:52:08.658Z,101199.66
2022-12-19T07:54:39.748Z,101286.22
2022-12-19T07:57:08.051Z,101127.34
2022-12-19T07:59:38.926Z,101306.28
2022-12-19T08:02:06.728Z,101297.72
2022-12-19T08:04:35.043Z,101196.88
2022-12-19T08:07:02.659Z,101239.25
2022-12-19T08:09:29.713Z,101255.94
2022-12-19T08:11:56.788Z,101091.81
2022-12-19T08:14:23.655Z,101297.94
2022-12-19T08:17:19.400Z,101251.47
2022-12-19T08:19:37.175Z,101240.25
2022-12-19T08:22:04.078Z,101278.34
2022-12-19T08:24:32.570Z,101311.97
2022-12-19T08:26:59.459Z,101307.56
2022-12-19T08:29:26.612Z,101305.22
2022-12-19T08:32:06.957Z,101249.97
2022-12-19T08:34:34.010Z,101254.91
2022-12-19T08:37:00.972Z,101260.19
2022-12-19T08:39:28.564Z,101203.41
2022-12-19T08:41:55.259Z,101293.66
2022-12-19T08:44:22.118Z,101183.38
2022-12-19T08:46:50.514Z,101226.41
2022-12-19T08:49:24.358Z,101285.00
2022-12-19T08:51:51.417Z,101144.16
2022-12-19T08:54:18.375Z,101235.81
2022-12-19T08:56:46.361Z,101283.44
2022-12-19T08:59:18.685Z,101135.88
2022-12-19T09:01:52.511Z,101104.09
2022-12-19T09:05:21.294Z,101185.00
2022-12-19T09:07:06.685Z,101187.59
2022-12-19T09:09:34.017Z,101146.59
2022-12-19T09:12:00.830Z,101194.06
2022-12-19T09:14:27.718Z,101244.16
2022-12-19T09:17:00.987Z,101139.38
2022-12-19T09:19:33.165Z,101058.63
2022-12-19T09:22:00.187Z,101133.28
2022-12-19T09:24:27.070Z,101173.41
2022-12-19T09:26:54.128Z,101272.19
2022-12-19T09:29:22.017Z,101141.94
2022-12-19T09:31:55.513Z,101252.66
2022-12-19T09:34:24.012Z,101149.66
2022-12-19T09:36:52.147Z,101214.13
2022-12-19T09:40:27.468Z,101248.69
2022-12-19T09:42:57.022Z,101244.94
2022-12-19T09:45:48.233Z,101243.13
2022-12-19T09:48:24.060Z,101146.00
2022-12-19T09:51:10.248Z,101248.09
2022-12-19T09:53:59.940Z,101248.16
2022-12-19T09:56:34.108Z,101220.81
2022-12-19T09:59:41.117Z,101157.34
2022-12-19T10:02:44.544Z,101128.34
2022-12-19T10:06:35.411Z,101215.91
2022-12-19T10:08:22.287Z,101197.94
2022-12-19T10:12:36.465Z,101196.28
2022-12-19T10:14:16.188Z,101111.47
2022-12-19T10:17:24.547Z,101230.09
2022-12-19T10:20:11.307Z,101230.91
2022-12-19T10:22:59.715Z,101236.91
2022-12-19T10:25:39.435Z,101231.81
2022-12-19T10:28:39.540Z,101229.31
2022-12-19T10:31:21.634Z,101123.78
2022-12-19T10:34:05.767Z,101216.63
2022-12-19T10:37:12.890Z,101181.63
2022-12-19T10:39:48.393Z,101207.50
2022-12-19T10:42:46.908Z,101051.41
2022-12-19T10:45:17.296Z,101209.31
2022-12-19T10:47:44.255Z,101116.00
2022-12-19T10:50:23.957Z,101084.31
2022-12-19T10:52:55.377Z,101152.13
2022-12-19T10:55:45.110Z,101196.66
2022-12-19T10:58:32.240Z,101201.75
2022-12-19T11:00:59.408Z,101213.66
2022-12-19T11:03:26.841Z,101125.47
2022-12-19T11:05:57.691Z,101091.53
2022-12-19T11:08:28.340Z,101038.16
2022-12-19T11:13:10.297Z,101184.16
2022-12-19T11:19:50.052Z,101148.13
2022-12-19T11:24:10.015Z,101162.72
2022-12-19T11:29:18.620Z,101175.78
2022-12-19T11:29:34.918Z,101135.53
2022-12-19T11:30:36.478Z,101111.50
2022-12-19T11:30:42.811Z,101099.88
2022-12-19T11:34:17.820Z,101144.50
2022-12-19T11:37:21.948Z,101145.25
2022-12-19T11:40:11.033Z,101136.78
2022-12-19T11:43:04.410Z,101093.22
2022-12-19T11:45:48.841Z,101111.41
2022-12-19T11:48:46.238Z,101082.13
2022-12-19T11:51:28.377Z,101017.06
2022-12-19T11:54:30.754Z,101122.44
2022-12-19T11:56:58.416Z,100951.19
2022-12-19T11:59:34.980Z,100946.84
2022-12-19T12:02:33.281Z,101071.31
2022-12-19T12:05:18.408Z,101091.81
2022-12-19T12:09:50.123Z,101115.84
2022-12-19T12:17:21.258Z,101078.38
2022-12-19T12:24:06.388Z,101106.63
2022-12-19T12:31:21.496Z,101088.78
2022-12-19T12:31:30.964Z,101102.41
2022-12-19T12:31:54.262Z,101085.50
2022-12-19T12:31:56.046Z,101097.38
2022-12-19T12:32:04.830Z,101096.56
2022-12-19T12:35:31.819Z,101094.06
2022-12-19T12:39:02.171Z,101094.97
2022-12-19T12:42:05.330Z,101034.28
2022-12-19T12:44:44.866Z,101065.16
2022-12-19T12:47:15.559Z,101102.69
2022-12-19T12:49:46.561Z,101033.47
2022-12-19T12:52:22.204Z,101056.63
2022-12-19T12:54:50.924Z,101054.88
2022-12-19T12:57:36.076Z,100924.91
2022-12-19T13:00:20.033Z,101071.31
2022-12-19T13:02:55.671Z,100977.03
2022-12-19T13:05:52.909Z,101089.09
2022-12-19T13:08:36.562Z,101077.91
2022-12-19T13:11:38.464Z,101084.75
2022-12-19T13:14:26.693Z,100965.09
2022-12-19T13:16:54.193Z,100921.53
2022-12-19T13:19:28.791Z,101078.06
2022-12-19T13:22:05.200Z,101068.69
2022-12-19T13:24:39.472Z,101072.97
2022-12-19T13:27:21.619Z,101089.25
2022-12-19T13:30:00.629Z,101081.53
2022-12-19T13:32:53.787Z,101071.44
2022-12-19T13:36:38.085Z,101004.94
2022-12-19T13:39:48.862Z,101078.63
2022-12-19T13:41:58.484Z,101071.00
2022-12-19T13:44:26.513Z,101074.50
2022-12-19T13:46:56.189Z,101040.31
2022-12-19T13:49:34.282Z,101014.72
2022-12-19T13:52:02.988Z,101009.66
2022-12-19T13:54:46.069Z,101055.81
2022-12-19T13:57:31.074Z,101051.56
2022-12-19T14:00:02.199Z,100979.00
2022-12-19T14:02:44.804Z,100943.16
2022-12-19T14:06:16.512Z,100988.31
2022-12-19T14:08:29.024Z,101047.34
2022-12-19T14:11:44.172Z,100997.00
2022-12-19T14:14:15.084Z,101019.22
2022-12-19T14:16:46.095Z,101024.41
2022-12-19T14:19:24.995Z,100944.09
2022-12-19T14:22:05.621Z,101078.25
2022-12-19T14:24:40.024Z,101026.16
2022-12-19T14:28:23.443Z,101025.28
2022-12-19T14:30:29.691Z,101024.47
2022-12-19T14:33:45.774Z,101017.59
2022-12-19T14:36:10.169Z,100971.41
2022-12-19T14:39:22.942Z,100963.69
2022-12-19T14:42:07.046Z,100952.66
2022-12-19T14:52:08.552Z,101011.53
2022-12-19T14:53:34.399Z,101052.66
2022-12-19T14:54:24.146Z,100978.34
2022-12-19T14:54:40.654Z,100936.50
2022-12-19T14:59:05.585Z,101067.13
2022-12-19T15:01:36.478Z,100875.31
2022-12-19T15:04:50.971Z,100953.16
2022-12-19T15:07:23.976Z,100961.63
2022-12-19T15:11:04.631Z,101064.88
2022-12-19T15:14:49.065Z,101018.56
2022-12-19T15:16:31.785Z,100885.13
2022-12-19T15:19:01.597Z,100981.78
2022-12-19T15:21:30.112Z,100936.44
2022-12-19T15:23:57.104Z,100963.75
2022-12-19T15:26:30.719Z,100938.00
2022-12-19T15:28:58.306Z,100874.75
2022-12-19T15:31:43.981Z,100915.81
2022-12-19T15:36:58.431Z,100991.84
2022-12-19T15:39:26.879Z,100990.88
2022-12-19T15:41:55.444Z,100905.44
2022-12-19T15:44:38.629Z,101026.00
2022-12-19T15:47:15.185Z,100837.78
2022-12-19T15:49:42.122Z,100865.97
2022-12-19T15:52:19.910Z,101048.91
2022-12-19T15:54:48.751Z,100973.69
2022-12-19T15:57:36.411Z,100936.03
2022-12-19T16:00:08.997Z,100946.97
2022-12-19T16:05:26.401Z,100830.75
2022-12-19T16:07:53.394Z,100932.59
2022-12-19T16:10:20.264Z,100884.66
2022-12-19T16:12:53.087Z,101022.28
2022-12-19T16:15:24.276Z,100922.94
2022-12-19T16:17:51.233Z,100856.28
2022-12-19T16:20:24.660Z,100937.63
2022-12-19T16:22:51.668Z,100893.19
2022-12-19T16:25:19.037Z,100899.94
2022-12-19T16:27:54.351Z,100885.44
2022-12-19T16:30:30.423Z,100957.28
2022-12-19T16:32:57.643Z,100978.69
2022-12-19T16:35:54.889Z,101007.81
2022-12-19T16:38:13.748Z,100959.03
2022-12-19T16:40:40.939Z,100924.66
2022-12-19T16:43:26.225Z,100990.53
2022-12-19T16:45:56.854Z,100952.03
2022-12-19T16:48:30.267Z,101028.06
2022-12-19T16:50:59.017Z,100875.84
2022-12-19T16:53:26.107Z,100935.69
2022-12-19T16:55:55.281Z,100916.91
2022-12-19T16:58:27.526Z,101008.59
2022-12-19T17:00:55.909Z,100915.38
2022-12-19T17:03:28.547Z,101005.19
2022-12-19T17:05:56.229Z,100853.69
2022-12-19T17:08:23.397Z,100958.03
2022-12-19T17:10:50.705Z,100918.66
2022-12-19T17:13:18.433Z,100749.38
2022-12-19T17:15:49.715Z,100982.84
2022-12-19T17:18:27.872Z,100994.88
2022-12-19T17:20:54.828Z,100852.84
2022-12-19T17:23:24.043Z,100940.13
2022-12-19T17:25:51.457Z,100878.53
2022-12-19T17:28:18.528Z,100978.81
2022-12-19T17:30:57.626Z,100983.75
2022-12-19T17:33:33.518Z,100981.22
2022-12-19T17:36:02.078Z,100850.44
2022-12-19T17:38:29.245Z,100823.91
2022-12-19T17:40:56.465Z,100773.53
2022-12-19T17:43:23.455Z,100945.34
2022-12-19T17:45:51.330Z,100984.63
2022-12-19T17:48:33.671Z,100982.00
2022-12-19T17:51:00.827Z,100967.56
2022-12-19T17:53:27.794Z,100868.25
2022-12-19T17:55:56.814Z,100810.13
2022-12-19T17:58:23.668Z,100962.28
2022-12-19T18:00:51.731Z,100972.56
2022-12-19T18:03:23.326Z,100837.47
2022-12-19T18:05:52.869Z,100994.88
2022-12-19T18:08:29.359Z,100947.00
2022-12-19T18:10:58.004Z,100958.16
2022-12-19T18:13:26.719Z,101011.06
2022-12-19T18:15:57.710Z,100827.41
2022-12-19T18:18:31.263Z,100987.06
2022-12-19T18:21:00.513Z,100941.94
2022-12-19T18:23:28.325Z,100986.44
2022-12-19T18:26:01.255Z,100830.63
2022-12-19T18:28:29.276Z,100953.72
2022-12-19T18:31:03.341Z,100768.31
2022-12-19T18:33:38.538Z,100966.66
2022-12-19T18:36:07.680Z,100850.28
2022-12-19T18:38:34.965Z,100912.63
2022-12-19T18:41:02.233Z,100921.97
2022-12-19T18:43:31.300Z,100972.44
2022-12-19T18:45:58.753Z,100931.41
2022-12-19T18:48:26.628Z,101020.38
2022-12-19T18:50:56.434Z,100945.16
2022-12-19T18:53:28.555Z,100863.78
2022-12-19T18:56:04.270Z,100963.16
2022-12-19T18:58:31.751Z,100840.88
2022-12-19T19:01:00.801Z,100819.38
2022-12-19T19:03:35.145Z,100993.84
2022-12-19T19:06:04.155Z,100939.16
2022-12-19T19:08:33.395Z,100978.44
2022-12-19T19:11:01.400Z,100915.97
2022-12-19T19:13:28.989Z,100867.22
2022-12-19T19:16:02.026Z,100876.50
2022-12-19T19:18:38.259Z,100878.19
2022-12-19T19:21:07.621Z,100985.28
2022-12-19T19:23:47.305Z,100940.00
2022-12-19T19:26:14.566Z,100884.28
2022-12-19T19:28:41.993Z,100851.94
2022-12-19T19:31:16.390Z,100933.16
2022-12-19T19:34:00.787Z,100950.13
2022-12-19T19:36:31.633Z,100969.84
2022-12-19T19:38:59.753Z,101000.75
2022-12-19T19:41:30.073Z,100922.78
2022-12-19T19:43:57.992Z,100986.91
2022-12-19T19:46:25.225Z,100916.88
2022-12-19T19:48:52.383Z,100762.94
2022-12-19T19:51:19.471Z,100941.66
2022-12-19T19:53:47.148Z,100931.47
2022-12-19T19:56:14.161Z,100915.16
2022-12-19T19:58:41.389Z,100983.63
2022-12-19T20:01:13.696Z,100974.25
2022-12-19T20:03:45.434Z,100894.66
2022-12-19T20:06:12.993Z,100942.69
2022-12-19T20:08:40.960Z,100715.28
2022-12-19T20:11:09.993Z,100964.94
2022-12-19T20:13:38.153Z,100705.09
2022-12-19T20:16:10.677Z,100830.75
2022-12-19T20:18:39.315Z,100904.28
2022-12-19T20:21:13.098Z,100838.50
2022-12-19T20:23:42.225Z,100967.63
2022-12-19T20:26:09.895Z,100741.00
2022-12-19T20:28:42.285Z,100805.94
2022-12-19T20:31:14.745Z,100859.78
2022-12-19T20:33:41.991Z,100743.69
2022-12-19T20:36:11.468Z,100749.63
2022-12-19T20:38:39.288Z,100833.22
2022-12-19T20:41:07.187Z,100928.25
2022-12-19T20:43:34.471Z,100869.09
2022-12-19T20:46:17.484Z,100927.41
2022-12-19T20:48:45.285Z,100907.78
2022-12-19T20:51:13.588Z,100868.44
2022-12-19T20:53:41.782Z,100844.53
2022-12-19T20:56:12.428Z,100898.50
2022-12-19T20:58:40.105Z,100878.91
2022-12-19T21:01:13.354Z,100938.81
2022-12-19T21:03:41.374Z,100793.53
2022-12-19T21:06:10.706Z,100800.34
2022-12-19T21:08:39.081Z,100793.47
2022-12-19T21:11:08.013Z,100960.22
2022-12-19T21:13:36.401Z,100974.78
2022-12-19T21:16:09.071Z,100831.16
2022-12-19T21:18:38.705Z,100806.41
2022-12-19T21:21:07.161Z,100931.97
2022-12-19T21:23:35.109Z,100864.53
2022-12-19T21:26:04.509Z,100968.81
2022-12-19T21:28:32.245Z,100948.28
2022-12-19T21:31:20.273Z,100776.72
2022-12-19T21:33:48.968Z,100816.03
2022-12-19T21:36:20.510Z,100882.69
2022-12-19T21:38:49.230Z,100942.59
2022-12-19T21:41:19.443Z,100822.94
2022-12-19T21:43:53.694Z,100829.72
2022-12-19T21:46:33.442Z,100904.13
2022-12-19T21:49:01.243Z,100849.28
2022-12-19T21:51:31.537Z,100821.19
2022-12-19T21:54:01.125Z,100695.59
2022-12-19T21:56:34.497Z,100906.66
2022-12-19T21:59:07.403Z,100787.06
2022-12-19T22:01:35.277Z,100740.88
2022-12-19T22:04:06.791Z,100900.69
2022-12-19T22:06:37.817Z,100870.66
2022-12-19T22:09:16.443Z,100944.16
2022-12-19T22:11:44.086Z,100781.69
2022-12-19T22:14:14.537Z,100989.47
2022-12-19T22:16:42.383Z,100967.25
2022-12-19T22:19:12.496Z,100844.94
2022-12-19T22:21:39.615Z,100856.94
2022-12-19T22:24:07.042Z,100770.91
2022-12-19T22:26:35.308Z,100852.13
2022-12-19T22:29:15.097Z,100969.94
2022-12-19T22:31:43.304Z,100816.19
2022-12-19T22:34:13.396Z,100812.00
2022-12-19T22:36:42.122Z,100935.09
2022-12-19T22:39:12.085Z,100850.50
2022-12-19T22:41:40.358Z,100835.22
2022-12-19T22:44:15.234Z,100915.53
2022-12-19T22:46:42.855Z,100761.84
2022-12-19T22:49:11.843Z,100944.69
2022-12-19T22:51:43.931Z,100701.28
2022-12-19T22:54:12.199Z,100732.03
2022-12-19T22:56:40.202Z,100816.63
2022-12-19T22:59:17.569Z,100650.25
2022-12-19T23:01:44.911Z,100948.16
2022-12-19T23:04:15.744Z,100950.75
2022-12-19T23:06:43.711Z,100901.19
2022-12-19T23:09:16.231Z,100850.84
2022-12-19T23:11:46.577Z,100847.47
2022-12-19T23:14:16.347Z,100670.88
2022-12-19T23:16:44.593Z,100833.91
2022-12-19T23:19:12.441Z,100657.25
2022-12-19T23:21:39.583Z,100868.91
2022-12-19T23:26:51.413Z,100745.19
2022-12-19T23:29:18.523Z,100645.22
2022-12-19T23:31:47.437Z,100775.91
2022-12-19T23:34:15.836Z,100932.16
2022-12-19T23:37:10.409Z,100912.50
2022-12-19T23:39:30.217Z,100893.72
2022-12-19T23:41:57.260Z,100763.19
2022-12-19T23:44:24.417Z,100754.69
2022-12-19T23:46:51.492Z,100703.47
2022-12-19T23:49:18.443Z,100845.16
2022-12-19T23:51:46.046Z,100655.78
2022-12-19T23:54:13.325Z,100811.91
2022-12-19T23:56:43.114Z,100862.34
2022-12-19T23:59:10.562Z,100811.09
